Time;durP1;ratioP1;P1;durP2;ratioP2;P2;SDS_P1;SDS_P2;PMS_P1;PMS_P2;Temp;Humidity;BMP_temperature;BMP_pressure;BME280_temperature;BME280_humidity;BME280_pressure;Samples;Min_cycle;Max_cycle;Signal;HPM_P1;HPM_P2
2021/11/19 00:02:12;;;;;;;24.40;16.90;;;9.90;99.90;;;;;;4998753;28;20817;-71
2021/11/19 00:04:38;;;;;;;24.90;17.40;;;9.80;99.90;;;;;;4988902;28;20485;-70
2021/11/19 00:07:04;;;;;;;28.07;17.50;;;9.90;99.90;;;;;;4978169;28;20420;-68
2021/11/19 00:09:31;;;;;;;27.77;18.13;;;9.90;99.90;;;;;;4977650;28;20648;-70
2021/11/19 00:11:58;;;;;;;24.43;18.27;;;10.00;99.90;;;;;;4976340;28;20412;-68
2021/11/19 00:14:25;;;;;;;23.93;18.87;;;10.00;99.90;;;;;;4976513;28;20424;-69
2021/11/19 00:17:00;;;;;;;29.40;19.97;;;10.10;99.90;;;;;;4974071;28;20426;-69
2021/11/19 00:19:26;;;;;;;28.63;19.53;;;10.00;99.90;;;;;;4975284;28;20893;-69
2021/11/19 00:21:53;;;;;;;35.13;20.50;;;9.90;99.90;;;;;;4974573;28;20455;-69
2021/11/19 00:24:19;;;;;;;31.63;19.10;;;9.90;99.90;;;;;;4974164;28;20773;-69
2021/11/19 00:26:45;;;;;;;32.80;20.80;;;9.90;99.90;;;;;;4975648;28;20427;-68
2021/11/19 00:29:13;;;;;;;27.53;19.40;;;9.80;99.90;;;;;;5017522;22;20715;-69
2021/11/19 00:31:40;;;;;;;32.70;20.47;;;9.80;99.90;;;;;;5011874;28;20425;-69
2021/11/19 00:34:06;;;;;;;29.83;20.70;;;9.90;99.90;;;;;;5012900;28;20763;-70
2021/11/19 00:36:35;;;;;;;32.57;21.50;;;9.90;99.90;;;;;;5011653;28;20415;-70
2021/11/19 00:39:07;;;;;;;32.50;21.50;;;9.80;99.90;;;;;;5013619;28;20489;-70
2021/11/19 00:41:33;;;;;;;33.67;21.60;;;9.70;99.90;;;;;;5005726;28;20449;-70
2021/11/19 00:43:59;;;;;;;34.57;21.30;;;9.70;99.90;;;;;;4993203;28;20857;-70
2021/11/19 00:46:25;;;;;;;34.53;21.17;;;9.80;99.90;;;;;;4993076;28;20415;-70
2021/11/19 00:48:50;;;;;;;32.87;21.20;;;9.80;99.90;;;;;;4993332;28;20216;-70
2021/11/19 00:51:18;;;;;;;34.60;20.73;;;9.80;99.90;;;;;;4993791;28;20184;-70
2021/11/19 00:53:47;;;;;;;33.87;20.50;;;9.70;99.90;;;;;;4973780;28;20244;-69
2021/11/19 00:56:15;;;;;;;33.00;19.57;;;9.70;99.90;;;;;;4973386;28;20426;-69
2021/11/19 00:58:41;;;;;;;32.47;20.83;;;9.80;99.90;;;;;;4973892;28;20431;-70
2021/11/19 01:01:14;;;;;;;32.27;20.33;;;9.80;99.90;;;;;;4956145;28;20442;-70
2021/11/19 01:03:40;;;;;;;31.33;20.80;;;9.80;99.90;;;;;;4985479;28;20431;-70
2021/11/19 01:06:06;;;;;;;27.73;20.13;;;9.90;99.90;;;;;;5012051;28;20425;-70
2021/11/19 01:08:31;;;;;;;34.63;21.13;;;9.90;99.90;;;;;;5012460;28;20272;-70
2021/11/19 01:11:00;;;;;;;32.57;21.17;;;9.90;99.90;;;;;;5012406;28;20483;-69
2021/11/19 01:13:30;;;;;;;32.80;20.90;;;9.90;99.90;;;;;;5011128;28;20444;-69
2021/11/19 01:16:10;;;;;;;37.40;21.03;;;9.80;99.90;;;;;;5012696;28;20483;-71
2021/11/19 01:18:55;;;;;;;35.00;21.50;;;9.80;99.90;;;;;;5012562;28;20524;-69
2021/11/19 01:21:35;;;;;;;36.17;21.77;;;9.90;99.90;;;;;;5012511;28;20545;-69
2021/11/19 01:24:02;;;;;;;33.63;23.40;;;9.90;99.90;;;;;;5010804;28;20424;-69
2021/11/19 01:26:39;;;;;;;33.80;20.63;;;9.90;99.90;;;;;;5011946;28;20923;-70
2021/11/19 01:29:08;;;;;;;28.30;20.57;;;9.90;99.90;;;;;;5012155;28;20500;-70
2021/11/19 01:31:48;;;;;;;37.63;21.03;;;10.00;99.90;;;;;;5012170;28;20775;-71
2021/11/19 01:34:14;;;;;;;37.03;21.53;;;10.00;99.90;;;;;;5015531;28;20506;-70
2021/11/19 01:36:40;;;;;;;35.23;20.40;;;9.90;99.90;;;;;;5021914;28;20504;-71
2021/11/19 01:39:09;;;;;;;31.30;20.50;;;10.00;99.90;;;;;;5022282;28;20468;-70
2021/11/19 01:41:41;;;;;;;45.30;21.92;;;10.10;99.90;;;;;;5016036;28;20430;-70
2021/11/19 01:44:16;;;;;;;32.20;19.73;;;10.00;99.90;;;;;;5016274;28;20709;-69
2021/11/19 01:46:46;;;;;;;34.40;20.70;;;10.10;99.90;;;;;;5014195;28;20805;-70
2021/11/19 01:49:11;;;;;;;29.80;20.10;;;10.20;99.90;;;;;;5000567;28;20474;-69
2021/11/19 01:51:47;;;;;;;32.33;20.07;;;10.20;99.90;;;;;;4996074;28;20448;-69
2021/11/19 01:54:20;;;;;;;31.33;20.57;;;10.20;99.90;;;;;;4995986;28;20845;-69
2021/11/19 01:57:17;;;;;;;33.40;20.60;;;10.20;99.90;;;;;;4996910;28;20422;-69
2021/11/19 01:59:50;;;;;;;28.00;20.50;;;10.10;99.90;;;;;;4916235;29;20856;-69
2021/11/19 02:02:20;;;;;;;29.80;20.07;;;10.10;99.90;;;;;;4916926;29;20978;-69
2021/11/19 02:04:54;;;;;;;27.90;19.67;;;10.10;99.90;;;;;;4916944;29;20571;-69
2021/11/19 02:07:29;;;;;;;28.20;21.43;;;10.10;99.90;;;;;;4914508;29;20422;-69
2021/11/19 02:10:10;;;;;;;31.73;19.90;;;10.10;99.90;;;;;;4916551;29;20473;-69
2021/11/19 02:12:45;;;;;;;29.67;19.20;;;10.10;99.90;;;;;;4916560;29;20813;-70
2021/11/19 02:15:22;;;;;;;31.93;21.13;;;10.10;99.90;;;;;;4916550;29;20414;-70
2021/11/19 02:17:52;;;;;;;33.00;21.70;;;10.10;99.90;;;;;;4915110;29;20439;-70
2021/11/19 02:20:26;;;;;;;28.90;19.70;;;10.00;99.90;;;;;;4916645;29;20474;-70
2021/11/19 02:22:56;;;;;;;33.40;20.43;;;10.00;99.90;;;;;;4900273;29;21072;-70
2021/11/19 02:25:32;;;;;;;34.07;20.80;;;10.10;99.90;;;;;;4916282;29;20417;-70
2021/11/19 02:28:03;;;;;;;30.87;19.63;;;10.10;99.90;;;;;;4914664;29;20529;-70
2021/11/19 02:30:44;;;;;;;35.33;21.23;;;10.10;99.90;;;;;;4916594;29;20415;-70
2021/11/19 02:33:11;;;;;;;32.37;20.70;;;10.10;99.90;;;;;;4916248;29;20960;-70
2021/11/19 02:35:59;;;;;;;33.33;21.07;;;10.10;99.90;;;;;;4929415;28;20491;-70
2021/11/19 02:38:46;;;;;;;30.47;19.47;;;10.00;99.90;;;;;;4996770;28;20477;-69
2021/11/19 02:41:15;;;;;;;28.97;19.80;;;10.00;99.90;;;;;;4999661;28;20496;-69
2021/11/19 02:43:47;;;;;;;34.60;20.50;;;10.10;99.90;;;;;;5014827;28;20433;-70
2021/11/19 02:46:19;;;;;;;30.73;18.90;;;10.10;99.90;;;;;;5015067;28;20409;-71
2021/11/19 02:48:45;;;;;;;27.50;19.87;;;10.20;99.90;;;;;;4997373;28;20953;-71
2021/11/19 02:51:12;;;;;;;27.77;18.90;;;10.20;99.90;;;;;;5014122;28;20426;-70
2021/11/19 02:53:38;;;;;;;31.10;20.07;;;10.30;99.90;;;;;;5013959;28;20427;-71
2021/11/19 02:56:05;;;;;;;24.97;18.70;;;10.30;99.90;;;;;;5014458;28;20422;-70
2021/11/19 02:58:35;;;;;;;28.70;18.90;;;10.30;99.90;;;;;;5014829;28;20770;-70
2021/11/19 03:01:15;;;;;;;26.07;18.67;;;10.30;99.90;;;;;;5014845;28;20417;-70
2021/11/19 03:03:45;;;;;;;28.50;17.60;;;10.20;99.90;;;;;;5013498;28;20792;-70
2021/11/19 03:06:11;;;;;;;24.53;17.93;;;10.30;99.90;;;;;;5015084;28;20429;-70
2021/11/19 03:08:36;;;;;;;21.50;16.33;;;10.30;99.90;;;;;;5014167;28;20462;-70
2021/11/19 03:11:03;;;;;;;22.27;16.07;;;10.30;99.90;;;;;;5014874;28;20177;-69
2021/11/19 03:13:33;;;;;;;27.10;18.20;;;10.20;99.90;;;;;;5012713;28;20186;-70
2021/11/19 03:15:59;;;;;;;23.13;16.80;;;10.20;99.90;;;;;;5014458;28;20488;-70
2021/11/19 03:18:27;;;;;;;24.40;17.47;;;10.30;99.90;;;;;;5014836;28;20434;-70
2021/11/19 03:20:57;;;;;;;22.40;15.50;;;10.30;99.90;;;;;;5014562;28;20410;-70
2021/11/19 03:23:24;;;;;;;24.42;18.10;;;10.30;99.90;;;;;;5012345;28;20446;-70
2021/11/19 03:25:50;;;;;;;26.13;16.73;;;10.30;99.90;;;;;;5014219;28;20168;-70
2021/11/19 03:28:18;;;;;;;22.20;17.17;;;10.30;99.90;;;;;;5014390;28;20438;-70
2021/11/19 03:30:47;;;;;;;22.20;15.87;;;10.30;99.90;;;;;;5014417;28;20989;-70
2021/11/19 03:33:17;;;;;;;19.93;14.60;;;10.40;99.90;;;;;;5014567;28;20417;-70
2021/11/19 03:35:43;;;;;;;22.30;15.07;;;10.40;99.90;;;;;;5012247;28;20510;-70
2021/11/19 03:38:09;;;;;;;23.77;17.10;;;10.40;99.90;;;;;;5014471;28;20514;-70
2021/11/19 03:40:39;;;;;;;20.20;16.00;;;10.40;99.90;;;;;;5014271;28;20417;-70
2021/11/19 03:43:08;;;;;;;23.87;16.00;;;10.40;99.90;;;;;;5014195;28;20207;-70
2021/11/19 03:45:38;;;;;;;19.30;14.87;;;10.30;99.90;;;;;;5012044;28;20425;-70
2021/11/19 03:48:04;;;;;;;21.97;14.33;;;10.30;99.90;;;;;;5014267;28;20513;-70
2021/11/19 03:50:39;;;;;;;22.10;15.30;;;10.30;99.90;;;;;;4991270;28;20431;-70
2021/11/19 03:53:06;;;;;;;24.43;15.37;;;10.30;99.90;;;;;;4991414;28;20407;-70
2021/11/19 03:55:38;;;;;;;19.47;15.23;;;10.40;99.90;;;;;;4995489;28;20426;-69
2021/11/19 03:58:04;;;;;;;19.77;14.23;;;10.30;99.90;;;;;;4992050;28;20802;-71
2021/11/19 04:00:42;;;;;;;19.50;15.37;;;10.30;99.90;;;;;;4994004;28;20422;-70
2021/11/19 04:03:09;;;;;;;21.43;15.80;;;10.40;99.90;;;;;;4994717;28;20446;-70
2021/11/19 04:05:35;;;;;;;20.10;15.43;;;10.40;99.90;;;;;;4994566;28;20411;-70
2021/11/19 04:08:00;;;;;;;22.40;14.80;;;10.40;99.90;;;;;;4995778;28;20541;-70
2021/11/19 04:10:26;;;;;;;23.47;15.57;;;10.30;99.90;;;;;;5005877;28;20172;-70
2021/11/19 04:12:53;;;;;;;20.80;14.57;;;10.30;99.90;;;;;;5013793;28;20554;-70
2021/11/19 04:15:25;;;;;;;18.10;13.77;;;10.30;99.90;;;;;;5033676;28;20414;-69
2021/11/19 04:17:51;;;;;;;18.97;13.40;;;10.30;99.90;;;;;;5015833;28;20513;-70
2021/11/19 04:20:19;;;;;;;18.20;13.73;;;10.30;99.90;;;;;;5032840;28;20422;-69
2021/11/19 04:22:45;;;;;;;17.37;13.30;;;10.30;99.90;;;;;;5033882;28;20187;-69
2021/11/19 04:25:13;;;;;;;21.93;14.47;;;10.40;99.90;;;;;;5022613;28;20426;-70
2021/11/19 04:27:38;;;;;;;20.30;14.70;;;10.40;99.90;;;;;;4995886;28;20426;-70
2021/11/19 04:30:07;;;;;;;17.90;13.37;;;10.40;99.90;;;;;;5013976;28;20911;-70
2021/11/19 04:32:33;;;;;;;18.80;12.80;;;10.40;99.90;;;;;;5013773;28;20194;-69
2021/11/19 04:34:59;;;;;;;22.10;15.00;;;10.50;99.90;;;;;;5011785;28;20770;-71
2021/11/19 04:37:26;;;;;;;19.63;13.60;;;10.50;99.90;;;;;;5013515;28;20254;-70
2021/11/19 04:39:52;;;;;;;19.20;14.50;;;10.40;99.90;;;;;;5013759;28;20434;-70
2021/11/19 04:42:19;;;;;;;21.50;14.30;;;10.50;99.90;;;;;;4999980;28;20955;-70
2021/11/19 04:44:45;;;;;;;18.50;13.40;;;10.40;99.90;;;;;;4993400;28;20903;-70
2021/11/19 04:47:11;;;;;;;21.17;15.10;;;10.40;99.90;;;;;;4993818;28;20419;-70
2021/11/19 04:49:37;;;;;;;20.03;14.40;;;10.40;99.90;;;;;;4993949;28;20427;-70
2021/11/19 04:52:06;;;;;;;19.73;13.97;;;10.30;99.90;;;;;;4977468;28;20514;-70
2021/11/19 04:54:31;;;;;;;20.43;14.37;;;10.30;99.90;;;;;;4993752;28;20920;-69
2021/11/19 04:57:06;;;;;;;20.60;14.53;;;10.30;99.90;;;;;;4975679;28;20431;-70
2021/11/19 04:59:32;;;;;;;21.43;14.70;;;10.30;99.90;;;;;;4992173;28;20204;-69
2021/11/19 05:02:02;;;;;;;16.73;12.23;;;10.30;99.90;;;;;;4994984;28;20508;-70
2021/11/19 05:04:28;;;;;;;22.27;14.00;;;10.30;99.90;;;;;;4993597;28;20458;-70
2021/11/19 05:06:54;;;;;;;17.00;13.63;;;10.40;99.90;;;;;;4975762;28;20422;-69
2021/11/19 05:09:21;;;;;;;19.13;14.20;;;10.40;99.90;;;;;;4992157;28;20424;-70
2021/11/19 05:11:49;;;;;;;18.13;13.10;;;10.40;99.90;;;;;;4992903;28;20439;-69
2021/11/19 05:14:15;;;;;;;19.13;13.87;;;10.40;99.90;;;;;;4994401;28;20434;-70
2021/11/19 05:16:41;;;;;;;20.20;14.47;;;10.40;99.90;;;;;;4990883;28;20431;-70
2021/11/19 05:19:07;;;;;;;17.37;13.37;;;10.40;99.90;;;;;;4982728;28;20455;-71
2021/11/19 05:21:33;;;;;;;18.13;13.17;;;10.50;99.90;;;;;;4989445;28;20215;-70
2021/11/19 05:23:59;;;;;;;15.40;11.93;;;10.50;99.90;;;;;;4994419;28;20184;-70
2021/11/19 05:26:28;;;;;;;19.20;13.00;;;10.60;99.90;;;;;;4992614;28;20438;-70
2021/11/19 05:28:54;;;;;;;16.40;13.17;;;10.60;99.90;;;;;;4987359;28;20459;-70
2021/11/19 05:31:20;;;;;;;17.60;13.67;;;10.60;99.90;;;;;;4992981;28;20424;-70
2021/11/19 05:33:46;;;;;;;18.37;13.50;;;10.60;99.90;;;;;;4992343;28;20438;-69
2021/11/19 05:36:13;;;;;;;17.70;13.20;;;10.60;99.90;;;;;;4989686;28;20176;-70
2021/11/19 05:38:40;;;;;;;17.83;13.30;;;10.50;99.90;;;;;;4989524;28;20450;-70
2021/11/19 05:41:08;;;;;;;17.97;13.00;;;10.60;99.90;;;;;;4989779;28;20427;-70
2021/11/19 05:43:35;;;;;;;19.30;14.17;;;10.50;99.90;;;;;;4990979;28;20956;-70
2021/11/19 05:46:01;;;;;;;17.63;13.73;;;10.50;99.90;;;;;;4988025;28;20438;-70
2021/11/19 05:48:26;;;;;;;17.57;13.33;;;10.60;99.90;;;;;;4990062;28;20427;-70
2021/11/19 05:50:52;;;;;;;16.13;12.90;;;10.50;99.90;;;;;;4992996;28;20176;-70
2021/11/19 05:53:20;;;;;;;18.17;13.60;;;10.50;99.90;;;;;;4975805;28;20211;-69
2021/11/19 05:55:48;;;;;;;17.20;14.27;;;10.50;99.90;;;;;;4992042;28;20208;-70
2021/11/19 05:58:15;;;;;;;18.80;14.10;;;10.50;99.90;;;;;;4992529;28;21033;-69
2021/11/19 06:00:55;;;;;;;20.17;13.70;;;10.60;99.90;;;;;;4984256;28;20455;-69
2021/11/19 06:03:21;;;;;;;19.10;14.73;;;10.60;99.90;;;;;;4988115;28;20846;-69
2021/11/19 06:05:47;;;;;;;19.77;14.90;;;10.50;99.90;;;;;;5000487;28;20451;-70
2021/11/19 06:08:12;;;;;;;17.20;13.60;;;10.50;99.90;;;;;;5002378;28;20478;-68
2021/11/19 06:10:49;;;;;;;20.47;13.77;;;10.50;99.90;;;;;;4990204;28;20447;-70
2021/11/19 06:13:16;;;;;;;22.33;13.63;;;10.50;99.90;;;;;;5002302;28;20227;-69
2021/11/19 06:15:47;;;;;;;20.73;14.53;;;10.50;99.90;;;;;;5001769;28;20455;-68
2021/11/19 06:18:24;;;;;;;21.50;14.07;;;10.50;99.90;;;;;;4980234;28;20487;-69
2021/11/19 06:20:53;;;;;;;22.20;13.93;;;10.50;99.90;;;;;;4994193;28;20468;-68
2021/11/19 06:23:23;;;;;;;19.30;12.67;;;10.50;99.90;;;;;;4994916;28;21070;-69
2021/11/19 06:25:50;;;;;;;20.23;14.20;;;10.50;99.90;;;;;;5000405;28;20465;-69
2021/11/19 06:28:20;;;;;;;18.17;13.60;;;10.60;99.90;;;;;;5018859;28;20599;-70
2021/11/19 06:30:46;;;;;;;17.57;12.80;;;10.60;99.90;;;;;;4999335;28;20504;-70
2021/11/19 06:33:12;;;;;;;16.50;12.70;;;10.60;99.90;;;;;;4994444;28;20819;-68
2021/11/19 06:35:38;;;;;;;16.37;11.93;;;10.60;99.90;;;;;;4978159;28;20447;-69
2021/11/19 06:38:04;;;;;;;16.40;12.90;;;10.60;99.90;;;;;;5003371;28;20466;-68
2021/11/19 06:40:32;;;;;;;19.13;13.20;;;10.60;99.90;;;;;;5015795;28;20683;-68
2021/11/19 06:42:58;;;;;;;20.20;13.20;;;10.60;99.90;;;;;;5015676;28;20501;-68
2021/11/19 06:45:25;;;;;;;17.17;12.90;;;10.60;99.90;;;;;;4998786;28;20442;-71
2021/11/19 06:47:51;;;;;;;17.00;12.30;;;10.60;99.90;;;;;;4996429;28;20315;-69
2021/11/19 06:50:20;;;;;;;16.87;13.20;;;10.60;99.90;;;;;;4996089;28;20439;-68
2021/11/19 06:52:46;;;;;;;16.93;12.23;;;10.70;99.90;;;;;;5000210;28;20431;-70
2021/11/19 06:55:12;;;;;;;15.27;11.87;;;10.70;99.90;;;;;;4996620;28;20443;-70
2021/11/19 06:57:38;;;;;;;15.83;11.00;;;10.70;99.90;;;;;;4997059;28;20560;-70
2021/11/19 07:00:12;;;;;;;16.67;12.50;;;10.70;99.90;;;;;;4996760;28;20439;-70
2021/11/19 07:02:38;;;;;;;17.37;12.03;;;10.70;99.90;;;;;;4996891;28;20474;-70
2021/11/19 07:05:05;;;;;;;14.03;10.90;;;10.60;99.90;;;;;;4977503;28;20591;-71
2021/11/19 07:07:31;;;;;;;17.63;11.73;;;10.70;99.90;;;;;;4991711;28;20446;-70
2021/11/19 07:09:57;;;;;;;13.87;10.90;;;10.70;99.90;;;;;;4998127;28;20453;-70
2021/11/19 07:12:23;;;;;;;15.20;11.33;;;10.70;99.90;;;;;;5016188;28;20520;-71
2021/11/19 07:14:48;;;;;;;15.40;11.57;;;10.70;99.90;;;;;;5015559;28;20484;-70
2021/11/19 07:17:15;;;;;;;17.80;11.67;;;10.80;99.90;;;;;;5015108;28;20651;-70
2021/11/19 07:19:41;;;;;;;16.07;11.23;;;10.80;99.90;;;;;;5014274;28;20667;-70
2021/11/19 07:22:08;;;;;;;19.30;12.53;;;10.80;99.90;;;;;;5014149;28;20458;-70
2021/11/19 07:24:35;;;;;;;18.63;14.20;;;10.80;99.90;;;;;;5014000;28;20457;-69
2021/11/19 07:27:01;;;;;;;16.10;11.50;;;10.80;99.90;;;;;;5014298;28;20426;-69
2021/11/19 07:29:27;;;;;;;17.10;13.20;;;10.80;99.90;;;;;;5014212;28;20481;-70
2021/11/19 07:31:53;;;;;;;16.57;11.90;;;10.80;99.90;;;;;;5014056;28;20434;-71
2021/11/19 07:34:19;;;;;;;19.00;13.27;;;10.80;99.90;;;;;;5015170;28;20465;-69
2021/11/19 07:36:45;;;;;;;17.67;12.20;;;10.80;99.90;;;;;;5010919;28;20248;-69
2021/11/19 07:39:12;;;;;;;17.60;13.90;;;10.80;99.90;;;;;;4975309;28;20196;-71
2021/11/19 07:41:38;;;;;;;19.63;13.30;;;10.90;99.90;;;;;;4975186;28;20839;-70
2021/11/19 07:44:04;;;;;;;18.03;12.67;;;10.90;99.90;;;;;;4974033;28;20446;-71
2021/11/19 07:46:31;;;;;;;16.93;13.10;;;10.90;99.90;;;;;;4974523;28;20428;-69
2021/11/19 07:48:58;;;;;;;14.13;11.93;;;10.90;99.90;;;;;;4975474;28;20817;-70
2021/11/19 07:51:29;;;;;;;17.27;13.10;;;10.90;99.90;;;;;;4974801;28;20451;-70
2021/11/19 07:53:55;;;;;;;17.93;12.40;;;10.90;99.90;;;;;;4975108;28;20429;-71
2021/11/19 07:56:29;;;;;;;18.30;12.50;;;10.90;99.90;;;;;;4974990;28;20444;-69
2021/11/19 07:58:56;;;;;;;15.40;11.00;;;10.80;99.90;;;;;;4961399;28;20537;-69
2021/11/19 08:01:21;;;;;;;16.47;12.60;;;10.80;99.90;;;;;;4993259;28;20455;-70
2021/11/19 08:03:47;;;;;;;16.80;13.10;;;10.80;99.90;;;;;;4993546;28;20470;-70
2021/11/19 08:06:13;;;;;;;15.90;12.40;;;10.80;99.90;;;;;;5005591;28;20291;-70
2021/11/19 08:08:39;;;;;;;18.40;14.90;;;10.80;99.90;;;;;;4991889;28;20845;-70
2021/11/19 08:11:08;;;;;;;18.03;13.53;;;10.80;99.90;;;;;;5022771;22;20227;-69
2021/11/19 08:13:34;;;;;;;16.17;11.60;;;10.80;99.90;;;;;;5013398;28;20450;-69
2021/11/19 08:16:00;;;;;;;18.30;13.10;;;10.90;99.90;;;;;;5011891;28;20419;-69
2021/11/19 08:18:30;;;;;;;16.17;12.60;;;10.90;99.90;;;;;;5012783;28;20599;-69
2021/11/19 08:20:57;;;;;;;18.97;13.90;;;10.90;99.90;;;;;;4998940;28;20285;-69
2021/11/19 08:23:34;;;;;;;17.50;13.50;;;10.90;99.90;;;;;;4992940;28;20508;-69
2021/11/19 08:26:13;;;;;;;20.43;13.70;;;10.90;99.90;;;;;;4992524;28;20455;-69
2021/11/19 08:28:41;;;;;;;17.90;12.63;;;10.90;99.90;;;;;;4993080;28;20415;-69
2021/11/19 08:31:14;;;;;;;19.00;13.17;;;10.90;99.90;;;;;;4992966;28;20439;-69
2021/11/19 08:33:40;;;;;;;18.07;13.20;;;10.90;99.90;;;;;;4993519;28;20412;-69
2021/11/19 08:36:07;;;;;;;18.77;14.63;;;10.90;99.90;;;;;;4992701;28;20494;-69
2021/11/19 08:38:32;;;;;;;16.63;12.37;;;11.00;99.90;;;;;;4999666;28;20578;-70
2021/11/19 08:40:59;;;;;;;17.90;14.17;;;10.90;99.90;;;;;;4993062;28;20512;-69
2021/11/19 08:43:33;;;;;;;19.70;14.80;;;10.90;99.90;;;;;;4992956;28;20200;-69
2021/11/19 08:46:02;;;;;;;17.77;13.40;;;11.00;99.90;;;;;;4993547;28;20415;-68
2021/11/19 08:48:29;;;;;;;19.87;14.57;;;11.00;99.90;;;;;;4993096;28;20416;-69
2021/11/19 08:50:57;;;;;;;19.00;14.40;;;11.00;99.90;;;;;;4993000;28;20432;-69
2021/11/19 08:53:24;;;;;;;18.37;13.37;;;11.00;99.90;;;;;;4975826;28;20514;-69
2021/11/19 08:55:54;;;;;;;18.90;14.47;;;11.00;99.90;;;;;;4993045;28;20423;-68
2021/11/19 08:58:22;;;;;;;20.60;14.73;;;11.00;99.90;;;;;;4993162;28;20423;-69
2021/11/19 09:00:50;;;;;;;18.10;13.13;;;11.10;99.90;;;;;;4993882;28;21020;-69
2021/11/19 09:03:15;;;;;;;17.70;13.93;;;11.00;99.90;;;;;;4995093;28;20842;-69
2021/11/19 09:05:44;;;;;;;21.57;13.43;;;10.90;99.90;;;;;;4981661;28;20461;-68
2021/11/19 09:08:13;;;;;;;19.40;13.70;;;10.90;99.90;;;;;;5010362;28;20180;-68
2021/11/19 09:10:40;;;;;;;20.30;14.23;;;11.00;99.90;;;;;;5000248;28;20465;-68
2021/11/19 09:13:07;;;;;;;19.57;14.00;;;11.00;99.90;;;;;;5001971;28;20496;-69
2021/11/19 09:15:35;;;;;;;18.70;13.80;;;11.00;99.90;;;;;;5000960;28;20561;-69
2021/11/19 09:18:31;;;;;;;17.90;13.87;;;11.00;99.90;;;;;;5004889;28;20410;-69
2021/11/19 09:21:19;;;;;;;20.63;14.43;;;11.10;99.90;;;;;;5000267;28;20435;-69
2021/11/19 09:23:58;;;;;;;19.20;13.67;;;11.00;99.90;;;;;;4995015;28;20403;-69
2021/11/19 09:26:50;;;;;;;20.83;14.33;;;11.00;99.90;;;;;;5004515;28;20417;-69
2021/11/19 09:29:27;;;;;;;21.23;14.57;;;11.00;99.90;;;;;;5023000;28;20441;-69
2021/11/19 09:31:54;;;;;;;20.33;14.80;;;11.10;99.90;;;;;;4998975;28;20405;-69
2021/11/19 09:34:21;;;;;;;17.97;14.43;;;11.10;99.90;;;;;;5027856;28;20407;-68
2021/11/19 09:36:47;;;;;;;20.20;14.50;;;11.10;99.90;;;;;;5025861;28;20418;-67
2021/11/19 09:39:15;;;;;;;17.67;14.10;;;11.00;99.90;;;;;;5026052;28;20410;-69
2021/11/19 09:41:59;;;;;;;18.63;13.83;;;10.90;99.90;;;;;;4980016;28;20485;-69
2021/11/19 09:44:43;;;;;;;21.50;15.50;;;10.90;99.90;;;;;;5001547;28;20401;-69
2021/11/19 09:47:27;;;;;;;21.20;16.55;;;10.90;99.90;;;;;;5011106;28;20411;-69
2021/11/19 09:50:21;;;;;;;19.50;13.67;;;11.00;99.90;;;;;;4977452;28;20632;-69
2021/11/19 09:53:14;;;;;;;18.20;13.80;;;11.00;99.90;;;;;;4992358;28;20431;-69
2021/11/19 09:55:58;;;;;;;20.60;15.57;;;11.00;99.90;;;;;;5011385;28;20411;-69
2021/11/19 09:58:56;;;;;;;19.87;13.70;;;11.10;99.90;;;;;;4995723;28;20502;-69
2021/11/19 10:01:44;;;;;;;20.77;15.03;;;11.10;99.90;;;;;;4997680;28;20426;-69
2021/11/19 10:04:22;;;;;;;19.37;14.40;;;11.10;99.90;;;;;;4999035;28;20413;-69
2021/11/19 10:07:18;;;;;;;19.87;14.83;;;11.20;99.90;;;;;;4998740;28;20445;-69
2021/11/19 10:10:03;;;;;;;19.07;13.37;;;11.20;99.90;;;;;;4996043;28;20447;-69
2021/11/19 10:12:36;;;;;;;19.20;14.53;;;11.20;99.90;;;;;;4996468;28;20515;-69
2021/11/19 10:15:08;;;;;;;22.30;16.37;;;11.20;99.90;;;;;;4995641;28;20422;-69
2021/11/19 10:17:48;;;;;;;20.70;15.37;;;11.20;99.90;;;;;;4992914;28;20419;-69
2021/11/19 10:20:17;;;;;;;21.87;16.07;;;11.20;99.90;;;;;;4998055;28;20931;-68
2021/11/19 10:22:54;;;;;;;23.70;16.50;;;11.20;99.90;;;;;;4995624;28;20458;-69
2021/11/19 10:25:37;;;;;;;24.10;17.43;;;11.30;99.90;;;;;;4995257;28;20783;-69
2021/11/19 10:28:15;;;;;;;23.60;17.20;;;11.30;99.90;;;;;;4995464;28;20933;-69
2021/11/19 10:30:48;;;;;;;23.80;17.47;;;11.30;99.90;;;;;;4995228;28;20869;-69
2021/11/19 10:33:28;;;;;;;27.10;18.73;;;11.30;99.90;;;;;;4996121;28;20419;-70
2021/11/19 10:36:17;;;;;;;25.13;17.90;;;11.30;99.90;;;;;;4978205;28;20431;-70
2021/11/19 10:39:30;;;;;;;21.03;16.90;;;11.20;99.90;;;;;;5000830;28;20437;-68
2021/11/19 10:42:30;;;;;;;24.33;17.97;;;11.20;99.90;;;;;;4979275;28;20846;-71
2021/11/19 10:45:20;;;;;;;27.33;19.97;;;11.30;99.90;;;;;;5003244;28;20474;-71
2021/11/19 10:48:06;;;;;;;25.80;18.50;;;11.30;99.90;;;;;;4996067;28;20435;-69
2021/11/19 10:51:23;;;;;;;24.43;18.13;;;11.20;99.90;;;;;;4996456;28;20423;-72
2021/11/19 10:54:10;;;;;;;26.43;20.47;;;11.20;99.90;;;;;;4998564;28;20442;-69
2021/11/19 10:56:57;;;;;;;26.57;18.20;;;11.30;99.90;;;;;;4995792;28;20407;-71
2021/11/19 10:59:42;;;;;;;27.77;20.33;;;11.30;99.90;;;;;;4995321;28;20407;-71
2021/11/19 11:02:10;;;;;;;26.33;20.17;;;11.40;99.90;;;;;;4995523;28;20455;-71
2021/11/19 11:07:33;;;;;;;25.90;19.13;;;11.40;99.90;;;;;;4994743;28;20973;-70
2021/11/19 11:10:02;;;;;;;27.97;20.37;;;11.30;99.90;;;;;;4995936;28;20459;-70
2021/11/19 11:12:41;;;;;;;26.83;18.70;;;11.30;99.90;;;;;;4995715;28;20862;-71
2021/11/19 11:15:09;;;;;;;23.50;18.30;;;11.30;99.90;;;;;;4996212;28;20417;-70
2021/11/19 11:17:47;;;;;;;27.43;20.37;;;11.30;99.90;;;;;;4996076;28;20450;-70
2021/11/19 11:20:27;;;;;;;29.40;20.27;;;11.30;99.90;;;;;;4997366;28;20561;-72
2021/11/19 11:22:56;;;;;;;26.03;19.67;;;11.40;99.90;;;;;;4996400;28;20517;-70
2021/11/19 11:25:33;;;;;;;26.63;20.23;;;11.40;99.90;;;;;;4995727;28;20423;-71
2021/11/19 11:28:20;;;;;;;29.67;19.20;;;11.40;99.90;;;;;;4987901;28;20522;-70
2021/11/19 11:30:45;;;;;;;26.70;20.50;;;11.40;99.90;;;;;;4993185;28;20442;-68
2021/11/19 11:33:33;;;;;;;26.43;19.60;;;11.40;99.90;;;;;;5000573;28;20480;-68
2021/11/19 11:36:13;;;;;;;28.00;19.63;;;11.40;99.90;;;;;;4996443;28;20204;-68
2021/11/19 11:38:47;;;;;;;24.43;18.10;;;11.40;99.90;;;;;;5001058;28;20466;-68
2021/11/19 11:41:34;;;;;;;25.10;18.60;;;11.40;99.90;;;;;;5004387;28;20430;-69
2021/11/19 11:44:15;;;;;;;31.10;19.70;;;11.50;99.90;;;;;;5003747;28;20853;-69
2021/11/19 11:47:07;;;;;;;24.63;18.50;;;11.40;99.90;;;;;;4992622;28;20442;-69
2021/11/19 11:49:45;;;;;;;27.00;20.10;;;11.50;99.90;;;;;;4993027;28;20453;-68
2021/11/19 11:52:20;;;;;;;27.53;19.60;;;11.40;99.90;;;;;;4993222;28;20439;-68
2021/11/19 11:55:25;;;;;;;27.37;18.57;;;11.40;99.90;;;;;;4992786;28;20541;-69
2021/11/19 11:57:53;;;;;;;28.20;19.90;;;11.40;99.90;;;;;;4992694;28;20441;-69
2021/11/19 12:00:33;;;;;;;26.80;18.97;;;11.50;99.90;;;;;;4993106;28;21110;-69
2021/11/19 12:03:17;;;;;;;24.33;18.40;;;11.50;99.90;;;;;;4993053;28;20467;-69
2021/11/19 12:05:59;;;;;;;25.97;19.20;;;11.60;99.90;;;;;;4992383;28;20435;-69
2021/11/19 12:08:49;;;;;;;23.00;17.47;;;11.50;99.90;;;;;;4992133;28;20442;-69
2021/11/19 12:11:32;;;;;;;24.50;17.43;;;11.50;99.90;;;;;;4993015;28;20970;-70
2021/11/19 12:14:12;;;;;;;25.77;18.93;;;11.50;99.90;;;;;;4992149;28;20479;-69
2021/11/19 12:16:49;;;;;;;27.00;19.13;;;11.40;99.90;;;;;;4977866;28;20497;-69
2021/11/19 12:19:30;;;;;;;28.33;19.17;;;11.50;99.90;;;;;;4993019;28;20507;-69
2021/11/19 12:22:08;;;;;;;27.33;18.90;;;11.50;99.90;;;;;;4975692;28;20562;-69
2021/11/19 12:24:54;;;;;;;26.80;19.63;;;11.50;99.90;;;;;;4993284;28;20422;-69
2021/11/19 12:27:36;;;;;;;27.70;21.23;;;11.50;99.90;;;;;;4993010;28;20423;-69
2021/11/19 12:30:23;;;;;;;27.63;19.80;;;11.50;99.90;;;;;;4993456;28;20435;-69
2021/11/19 12:32:57;;;;;;;25.83;18.17;;;11.50;99.90;;;;;;4993161;28;20880;-69
2021/11/19 12:35:32;;;;;;;31.00;21.73;;;11.50;99.90;;;;;;4973917;28;20424;-69
2021/11/19 12:38:20;;;;;;;26.07;19.00;;;11.40;99.90;;;;;;4997612;28;20210;-69
2021/11/19 12:40:51;;;;;;;25.37;18.57;;;11.50;99.90;;;;;;4992623;28;20807;-68
2021/11/19 12:43:36;;;;;;;29.40;20.50;;;11.60;99.90;;;;;;4993525;28;20485;-70
2021/11/19 12:46:27;;;;;;;27.20;19.07;;;11.60;99.90;;;;;;4979236;28;20479;-68
2021/11/19 12:49:29;;;;;;;26.70;18.23;;;11.60;99.90;;;;;;4993497;28;20415;-68
2021/11/19 12:51:58;;;;;;;28.30;20.47;;;11.60;99.90;;;;;;4992718;28;20428;-70
2021/11/19 12:54:58;;;;;;;27.47;19.80;;;11.50;99.90;;;;;;4992812;28;20433;-70
2021/11/19 12:57:53;;;;;;;28.17;19.30;;;11.50;99.90;;;;;;4992355;28;20423;-68